sensor_id;sensor_type;location;lat;lon;timestamp;temperature;humidity
37310;DHT22;23195;47.744;7.358;2022-10-31T00:00:58;12.90;99.90
37310;DHT22;23195;47.744;7.358;2022-10-31T00:03:24;13.00;99.90
37310;DHT22;23195;47.744;7.358;2022-10-31T00:05:51;13.00;99.90
37310;DHT22;23195;47.744;7.358;2022-10-31T00:08:18;13.00;99.90
37310;DHT22;23195;47.744;7.358;2022-10-31T00:10:44;13.00;99.90
37310;DHT22;23195;47.744;7.358;2022-10-31T00:13:12;13.00;99.90
37310;DHT22;23195;47.744;7.358;2022-10-31T00:15:39;13.00;99.90
37310;DHT22;23195;47.744;7.358;2022-10-31T00:18:06;13.10;99.90
37310;DHT22;23195;47.744;7.358;2022-10-31T00:20:32;13.10;99.90
37310;DHT22;23195;47.744;7.358;2022-10-31T00:22:59;13.00;99.90
37310;DHT22;23195;47.744;7.358;2022-10-31T00:25:26;13.00;99.90
37310;DHT22;23195;47.744;7.358;2022-10-31T00:27:52;13.10;99.90
37310;DHT22;23195;47.744;7.358;2022-10-31T00:30:21;13.10;99.90
37310;DHT22;23195;47.744;7.358;2022-10-31T00:32:46;13.00;99.90
37310;DHT22;23195;47.744;7.358;2022-10-31T00:35:12;13.10;99.90
37310;DHT22;23195;47.744;7.358;2022-10-31T00:37:40;13.00;99.90
37310;DHT22;23195;47.744;7.358;2022-10-31T00:40:06;13.00;99.90
37310;DHT22;23195;47.744;7.358;2022-10-31T00:42:35;13.00;99.90
37310;DHT22;23195;47.744;7.358;2022-10-31T00:45:00;13.00;99.90
37310;DHT22;23195;47.744;7.358;2022-10-31T00:47:26;13.00;99.90
37310;DHT22;23195;47.744;7.358;2022-10-31T00:49:52;13.00;99.90
37310;DHT22;23195;47.744;7.358;2022-10-31T00:52:18;12.90;99.90
37310;DHT22;23195;47.744;7.358;2022-10-31T00:54:43;12.90;99.90
37310;DHT22;23195;47.744;7.358;2022-10-31T00:57:09;13.20;99.90
37310;DHT22;23195;47.744;7.358;2022-10-31T00:59:35;12.90;99.90
37310;DHT22;23195;47.744;7.358;2022-10-31T01:02:01;12.90;99.90
37310;DHT22;23195;47.744;7.358;2022-10-31T01:04:26;12.90;99.90
37310;DHT22;23195;47.744;7.358;2022-10-31T01:06:52;12.80;99.90
37310;DHT22;23195;47.744;7.358;2022-10-31T01:09:18;12.80;99.90
37310;DHT22;23195;47.744;7.358;2022-10-31T01:11:44;12.80;99.90
37310;DHT22;23195;47.744;7.358;2022-10-31T01:14:10;12.70;99.90
37310;DHT22;23195;47.744;7.358;2022-10-31T01:16:35;12.70;99.90
37310;DHT22;23195;47.744;7.358;2022-10-31T01:19:01;12.80;99.90
37310;DHT22;23195;47.744;7.358;2022-10-31T01:21:28;12.70;99.90
37310;DHT22;23195;47.744;7.358;2022-10-31T01:23:55;12.70;99.90
37310;DHT22;23195;47.744;7.358;2022-10-31T01:26:26;12.70;99.90
37310;DHT22;23195;47.744;7.358;2022-10-31T01:28:55;12.70;99.90
37310;DHT22;23195;47.744;7.358;2022-10-31T01:31:23;12.70;99.90
37310;DHT22;23195;47.744;7.358;2022-10-31T01:33:50;12.60;99.90
37310;DHT22;23195;47.744;7.358;2022-10-31T01:36:31;12.70;99.90
37310;DHT22;23195;47.744;7.358;2022-10-31T01:38:59;12.70;99.90
37310;DHT22;23195;47.744;7.358;2022-10-31T01:41:28;12.60;99.90
37310;DHT22;23195;47.744;7.358;2022-10-31T01:43:57;12.60;99.90
37310;DHT22;23195;47.744;7.358;2022-10-31T01:46:47;12.60;99.90
37310;DHT22;23195;47.744;7.358;2022-10-31T01:51:49;12.60;99.90
37310;DHT22;23195;47.744;7.358;2022-10-31T01:54:21;12.60;99.90
37310;DHT22;23195;47.744;7.358;2022-10-31T01:56:50;12.50;99.90
37310;DHT22;23195;47.744;7.358;2022-10-31T01:59:20;12.50;99.90
37310;DHT22;23195;47.744;7.358;2022-10-31T02:01:47;12.50;99.90
37310;DHT22;23195;47.744;7.358;2022-10-31T02:04:15;12.50;99.90
37310;DHT22;23195;47.744;7.358;2022-10-31T02:06:47;12.40;99.90
37310;DHT22;23195;47.744;7.358;2022-10-31T02:09:15;12.40;99.90
37310;DHT22;23195;47.744;7.358;2022-10-31T02:11:43;12.30;99.90
37310;DHT22;23195;47.744;7.358;2022-10-31T02:14:09;12.30;99.90
37310;DHT22;23195;47.744;7.358;2022-10-31T02:16:35;12.30;99.90
37310;DHT22;23195;47.744;7.358;2022-10-31T02:19:01;12.20;99.90
37310;DHT22;23195;47.744;7.358;2022-10-31T02:24:51;12.30;99.90
37310;DHT22;23195;47.744;7.358;2022-10-31T02:30:16;12.20;99.90
37310;DHT22;23195;47.744;7.358;2022-10-31T02:33:01;12.20;99.90
37310;DHT22;23195;47.744;7.358;2022-10-31T02:41:01;11.50;99.90
37310;DHT22;23195;47.744;7.358;2022-10-31T02:46:27;12.20;99.90
37310;DHT22;23195;47.744;7.358;2022-10-31T02:48:57;12.20;99.90
37310;DHT22;23195;47.744;7.358;2022-10-31T02:51:26;12.30;99.90
37310;DHT22;23195;47.744;7.358;2022-10-31T02:53:52;12.30;99.90
37310;DHT22;23195;47.744;7.358;2022-10-31T02:56:21;12.20;99.90
37310;DHT22;23195;47.744;7.358;2022-10-31T02:58:57;12.20;99.90
37310;DHT22;23195;47.744;7.358;2022-10-31T03:06:46;12.30;99.90
37310;DHT22;23195;47.744;7.358;2022-10-31T03:12:14;12.40;99.90
37310;DHT22;23195;47.744;7.358;2022-10-31T03:14:48;12.40;99.90
37310;DHT22;23195;47.744;7.358;2022-10-31T03:17:26;12.40;99.90
37310;DHT22;23195;47.744;7.358;2022-10-31T03:19:55;12.40;99.90
37310;DHT22;23195;47.744;7.358;2022-10-31T03:22:24;12.40;99.90
37310;DHT22;23195;47.744;7.358;2022-10-31T03:24:51;12.40;99.90
37310;DHT22;23195;47.744;7.358;2022-10-31T03:27:22;12.50;99.90
37310;DHT22;23195;47.744;7.358;2022-10-31T03:29:51;12.40;99.90
37310;DHT22;23195;47.744;7.358;2022-10-31T03:32:47;12.50;99.90
37310;DHT22;23195;47.744;7.358;2022-10-31T03:35:16;12.50;99.90
37310;DHT22;23195;47.744;7.358;2022-10-31T03:37:43;12.50;99.90
37310;DHT22;23195;47.744;7.358;2022-10-31T03:40:10;12.40;99.90
37310;DHT22;23195;47.744;7.358;2022-10-31T03:42:41;12.40;99.90
37310;DHT22;23195;47.744;7.358;2022-10-31T03:45:12;12.50;99.90
37310;DHT22;23195;47.744;7.358;2022-10-31T03:47:40;12.40;99.90
37310;DHT22;23195;47.744;7.358;2022-10-31T03:50:07;12.30;99.90
37310;DHT22;23195;47.744;7.358;2022-10-31T03:52:45;12.40;99.90
37310;DHT22;23195;47.744;7.358;2022-10-31T03:58:19;12.40;99.90
37310;DHT22;23195;47.744;7.358;2022-10-31T04:00:49;12.30;99.90
37310;DHT22;23195;47.744;7.358;2022-10-31T04:03:21;12.40;99.90
37310;DHT22;23195;47.744;7.358;2022-10-31T04:05:50;12.20;99.90
37310;DHT22;23195;47.744;7.358;2022-10-31T04:08:21;12.30;99.90
37310;DHT22;23195;47.744;7.358;2022-10-31T04:10:49;12.30;99.90
37310;DHT22;23195;47.744;7.358;2022-10-31T04:13:19;12.20;99.90
37310;DHT22;23195;47.744;7.358;2022-10-31T04:15:46;12.20;99.90
37310;DHT22;23195;47.744;7.358;2022-10-31T04:18:13;12.20;99.90
37310;DHT22;23195;47.744;7.358;2022-10-31T04:20:41;12.20;99.90
37310;DHT22;23195;47.744;7.358;2022-10-31T04:23:23;12.10;99.90
37310;DHT22;23195;47.744;7.358;2022-10-31T04:25:49;12.10;99.90
37310;DHT22;23195;47.744;7.358;2022-10-31T04:28:15;12.10;99.90
37310;DHT22;23195;47.744;7.358;2022-10-31T04:30:41;12.00;99.90
37310;DHT22;23195;47.744;7.358;2022-10-31T04:33:06;12.10;99.90
37310;DHT22;23195;47.744;7.358;2022-10-31T04:35:32;12.10;99.90
37310;DHT22;23195;47.744;7.358;2022-10-31T04:37:58;12.10;99.90
37310;DHT22;23195;47.744;7.358;2022-10-31T04:40:24;12.70;99.90
37310;DHT22;23195;47.744;7.358;2022-10-31T04:42:49;12.00;99.90
37310;DHT22;23195;47.744;7.358;2022-10-31T04:45:16;12.10;99.90
37310;DHT22;23195;47.744;7.358;2022-10-31T04:47:42;12.10;99.90
37310;DHT22;23195;47.744;7.358;2022-10-31T04:50:08;12.10;99.90
37310;DHT22;23195;47.744;7.358;2022-10-31T04:52:44;12.00;99.90
37310;DHT22;23195;47.744;7.358;2022-10-31T04:55:11;12.10;99.90
37310;DHT22;23195;47.744;7.358;2022-10-31T04:57:47;12.00;99.90
37310;DHT22;23195;47.744;7.358;2022-10-31T05:00:14;12.00;99.90
37310;DHT22;23195;47.744;7.358;2022-10-31T05:02:48;11.90;99.90
37310;DHT22;23195;47.744;7.358;2022-10-31T05:05:18;12.00;99.90
37310;DHT22;23195;47.744;7.358;2022-10-31T05:07:45;11.90;99.90
37310;DHT22;23195;47.744;7.358;2022-10-31T05:10:22;11.90;99.90
37310;DHT22;23195;47.744;7.358;2022-10-31T05:12:53;11.90;99.90
37310;DHT22;23195;47.744;7.358;2022-10-31T05:15:21;11.90;99.90
37310;DHT22;23195;47.744;7.358;2022-10-31T05:17:48;11.90;99.90
37310;DHT22;23195;47.744;7.358;2022-10-31T05:20:15;11.90;99.90
37310;DHT22;23195;47.744;7.358;2022-10-31T05:22:45;11.90;99.90
37310;DHT22;23195;47.744;7.358;2022-10-31T05:25:12;11.90;99.90
37310;DHT22;23195;47.744;7.358;2022-10-31T05:27:49;11.80;99.90
37310;DHT22;23195;47.744;7.358;2022-10-31T05:30:18;12.50;99.90
37310;DHT22;23195;47.744;7.358;2022-10-31T05:32:47;11.80;99.90
37310;DHT22;23195;47.744;7.358;2022-10-31T05:35:20;11.80;99.90
37310;DHT22;23195;47.744;7.358;2022-10-31T05:37:46;11.80;99.90
37310;DHT22;23195;47.744;7.358;2022-10-31T05:40:13;11.80;99.90
37310;DHT22;23195;47.744;7.358;2022-10-31T05:42:40;11.80;99.90
37310;DHT22;23195;47.744;7.358;2022-10-31T05:45:11;11.80;99.90
37310;DHT22;23195;47.744;7.358;2022-10-31T05:47:37;11.80;99.90
37310;DHT22;23195;47.744;7.358;2022-10-31T05:50:03;11.80;99.90
37310;DHT22;23195;47.744;7.358;2022-10-31T05:52:29;11.80;99.90
37310;DHT22;23195;47.744;7.358;2022-10-31T05:54:55;11.70;99.90
37310;DHT22;23195;47.744;7.358;2022-10-31T05:57:21;11.80;99.90
37310;DHT22;23195;47.744;7.358;2022-10-31T05:59:46;11.80;99.90
37310;DHT22;23195;47.744;7.358;2022-10-31T06:02:12;11.70;99.90
37310;DHT22;23195;47.744;7.358;2022-10-31T06:04:38;11.70;99.90
37310;DHT22;23195;47.744;7.358;2022-10-31T06:07:03;11.70;99.90
37310;DHT22;23195;47.744;7.358;2022-10-31T06:09:29;11.70;99.90
37310;DHT22;23195;47.744;7.358;2022-10-31T06:11:55;11.70;99.90
37310;DHT22;23195;47.744;7.358;2022-10-31T06:14:21;11.70;99.90
37310;DHT22;23195;47.744;7.358;2022-10-31T06:16:46;11.70;99.90
37310;DHT22;23195;47.744;7.358;2022-10-31T06:19:12;11.70;99.90
37310;DHT22;23195;47.744;7.358;2022-10-31T06:21:38;11.80;99.90
37310;DHT22;23195;47.744;7.358;2022-10-31T06:24:06;11.70;99.90
37310;DHT22;23195;47.744;7.358;2022-10-31T06:26:32;11.80;99.90
37310;DHT22;23195;47.744;7.358;2022-10-31T06:28:58;11.80;99.90
37310;DHT22;23195;47.744;7.358;2022-10-31T06:31:23;11.80;99.90
37310;DHT22;23195;47.744;7.358;2022-10-31T06:33:49;11.80;99.90
37310;DHT22;23195;47.744;7.358;2022-10-31T06:36:15;11.90;99.90
37310;DHT22;23195;47.744;7.358;2022-10-31T06:38:41;11.90;99.90
37310;DHT22;23195;47.744;7.358;2022-10-31T06:41:07;11.90;99.90
37310;DHT22;23195;47.744;7.358;2022-10-31T06:43:32;12.00;99.90
37310;DHT22;23195;47.744;7.358;2022-10-31T06:46:02;12.00;99.90
37310;DHT22;23195;47.744;7.358;2022-10-31T06:48:31;12.00;99.90
37310;DHT22;23195;47.744;7.358;2022-10-31T06:51:00;12.70;99.90
37310;DHT22;23195;47.744;7.358;2022-10-31T06:53:27;12.30;99.90
37310;DHT22;23195;47.744;7.358;2022-10-31T06:55:55;12.40;99.90
37310;DHT22;23195;47.744;7.358;2022-10-31T06:58:21;12.50;99.90
37310;DHT22;23195;47.744;7.358;2022-10-31T07:00:47;12.60;99.90
37310;DHT22;23195;47.744;7.358;2022-10-31T07:03:16;12.70;99.90
37310;DHT22;23195;47.744;7.358;2022-10-31T07:05:42;12.80;99.90
37310;DHT22;23195;47.744;7.358;2022-10-31T07:08:11;12.90;99.90
37310;DHT22;23195;47.744;7.358;2022-10-31T07:10:42;12.90;99.90
37310;DHT22;23195;47.744;7.358;2022-10-31T07:13:13;13.00;99.90
37310;DHT22;23195;47.744;7.358;2022-10-31T07:15:41;13.20;99.90
37310;DHT22;23195;47.744;7.358;2022-10-31T07:18:11;13.20;99.90
37310;DHT22;23195;47.744;7.358;2022-10-31T07:20:38;13.10;99.90
37310;DHT22;23195;47.744;7.358;2022-10-31T07:23:05;13.30;99.90
37310;DHT22;23195;47.744;7.358;2022-10-31T07:25:38;13.40;99.90
37310;DHT22;23195;47.744;7.358;2022-10-31T07:28:16;13.40;99.90
37310;DHT22;23195;47.744;7.358;2022-10-31T07:31:02;13.60;99.90
37310;DHT22;23195;47.744;7.358;2022-10-31T07:33:51;13.80;99.90
37310;DHT22;23195;47.744;7.358;2022-10-31T07:36:22;13.20;99.90
37310;DHT22;23195;47.744;7.358;2022-10-31T07:38:49;13.80;99.90
37310;DHT22;23195;47.744;7.358;2022-10-31T07:41:17;13.80;99.90
37310;DHT22;23195;47.744;7.358;2022-10-31T07:44:21;13.90;99.90
37310;DHT22;23195;47.744;7.358;2022-10-31T07:46:46;13.90;99.90
37310;DHT22;23195;47.744;7.358;2022-10-31T07:49:12;14.10;99.90
37310;DHT22;23195;47.744;7.358;2022-10-31T07:51:38;14.10;99.90
37310;DHT22;23195;47.744;7.358;2022-10-31T07:54:04;14.20;99.90
37310;DHT22;23195;47.744;7.358;2022-10-31T07:56:30;14.20;99.90
37310;DHT22;23195;47.744;7.358;2022-10-31T07:58:55;14.20;99.90
37310;DHT22;23195;47.744;7.358;2022-10-31T08:01:21;14.10;99.90
37310;DHT22;23195;47.744;7.358;2022-10-31T08:03:47;14.00;99.90
37310;DHT22;23195;47.744;7.358;2022-10-31T08:06:12;14.00;99.90
37310;DHT22;23195;47.744;7.358;2022-10-31T08:08:38;14.20;99.90
37310;DHT22;23195;47.744;7.358;2022-10-31T08:11:04;14.10;99.90
37310;DHT22;23195;47.744;7.358;2022-10-31T08:13:30;14.10;99.90
37310;DHT22;23195;47.744;7.358;2022-10-31T08:15:57;14.10;99.90
37310;DHT22;23195;47.744;7.358;2022-10-31T08:18:29;14.20;99.90
37310;DHT22;23195;47.744;7.358;2022-10-31T08:20:55;14.20;99.90
37310;DHT22;23195;47.744;7.358;2022-10-31T08:23:21;14.30;99.90
37310;DHT22;23195;47.744;7.358;2022-10-31T08:25:46;14.30;99.90
37310;DHT22;23195;47.744;7.358;2022-10-31T08:28:13;14.40;99.90
37310;DHT22;23195;47.744;7.358;2022-10-31T08:30:40;14.40;99.90
37310;DHT22;23195;47.744;7.358;2022-10-31T08:33:12;14.50;99.90
37310;DHT22;23195;47.744;7.358;2022-10-31T08:35:38;14.50;99.90
37310;DHT22;23195;47.744;7.358;2022-10-31T08:38:04;14.60;99.90
37310;DHT22;23195;47.744;7.358;2022-10-31T08:40:31;14.60;99.90
37310;DHT22;23195;47.744;7.358;2022-10-31T08:43:11;14.70;99.90
37310;DHT22;23195;47.744;7.358;2022-10-31T08:45:37;14.80;99.90
37310;DHT22;23195;47.744;7.358;2022-10-31T08:48:05;14.80;99.90
37310;DHT22;23195;47.744;7.358;2022-10-31T08:50:33;14.90;99.90
37310;DHT22;23195;47.744;7.358;2022-10-31T08:53:07;15.00;99.90
37310;DHT22;23195;47.744;7.358;2022-10-31T08:55:39;15.20;99.90
37310;DHT22;23195;47.744;7.358;2022-10-31T08:58:08;15.40;99.90
37310;DHT22;23195;47.744;7.358;2022-10-31T09:00:35;15.40;99.90
37310;DHT22;23195;47.744;7.358;2022-10-31T09:03:12;15.70;99.90
37310;DHT22;23195;47.744;7.358;2022-10-31T09:05:38;15.60;99.90
37310;DHT22;23195;47.744;7.358;2022-10-31T09:08:05;15.70;99.90
37310;DHT22;23195;47.744;7.358;2022-10-31T09:10:33;15.90;99.90
37310;DHT22;23195;47.744;7.358;2022-10-31T09:13:05;16.00;99.90
37310;DHT22;23195;47.744;7.358;2022-10-31T09:15:33;16.10;99.90
37310;DHT22;23195;47.744;7.358;2022-10-31T09:17:59;16.30;99.90
37310;DHT22;23195;47.744;7.358;2022-10-31T09:20:26;16.60;99.90
37310;DHT22;23195;47.744;7.358;2022-10-31T09:22:59;16.70;99.90
37310;DHT22;23195;47.744;7.358;2022-10-31T09:25:26;16.70;99.90
37310;DHT22;23195;47.744;7.358;2022-10-31T09:27:57;16.70;99.90
37310;DHT22;23195;47.744;7.358;2022-10-31T09:30:24;16.80;99.90
37310;DHT22;23195;47.744;7.358;2022-10-31T09:32:58;16.80;99.90
37310;DHT22;23195;47.744;7.358;2022-10-31T09:35:24;16.90;99.90
37310;DHT22;23195;47.744;7.358;2022-10-31T09:37:58;16.80;99.90
37310;DHT22;23195;47.744;7.358;2022-10-31T09:40:43;16.80;99.90
37310;DHT22;23195;47.744;7.358;2022-10-31T09:48:33;16.70;99.90
37310;DHT22;23195;47.744;7.358;2022-10-31T09:51:05;16.70;99.90
37310;DHT22;23195;47.744;7.358;2022-10-31T09:53:53;16.80;99.90
37310;DHT22;23195;47.744;7.358;2022-10-31T09:56:21;16.70;99.90
37310;DHT22;23195;47.744;7.358;2022-10-31T09:58:55;16.90;99.90
37310;DHT22;23195;47.744;7.358;2022-10-31T10:01:40;16.70;99.90
37310;DHT22;23195;47.744;7.358;2022-10-31T10:06:52;16.80;99.90
37310;DHT22;23195;47.744;7.358;2022-10-31T10:09:25;16.70;99.90
37310;DHT22;23195;47.744;7.358;2022-10-31T10:12:19;16.40;99.90
37310;DHT22;23195;47.744;7.358;2022-10-31T10:14:55;16.30;99.90
37310;DHT22;23195;47.744;7.358;2022-10-31T10:23:42;16.40;99.90
37310;DHT22;23195;47.744;7.358;2022-10-31T10:26:25;16.40;99.90
37310;DHT22;23195;47.744;7.358;2022-10-31T10:29:00;16.60;99.90
37310;DHT22;23195;47.744;7.358;2022-10-31T10:31:35;16.90;99.90
37310;DHT22;23195;47.744;7.358;2022-10-31T10:37:16;16.70;99.90
37310;DHT22;23195;47.744;7.358;2022-10-31T10:39:46;16.70;99.90
37310;DHT22;23195;47.744;7.358;2022-10-31T10:42:15;16.90;99.90
37310;DHT22;23195;47.744;7.358;2022-10-31T10:45:06;17.10;99.90
37310;DHT22;23195;47.744;7.358;2022-10-31T10:50:41;17.60;99.90
37310;DHT22;23195;47.744;7.358;2022-10-31T10:55:53;17.80;99.90
37310;DHT22;23195;47.744;7.358;2022-10-31T10:58:40;17.80;99.90
37310;DHT22;23195;47.744;7.358;2022-10-31T11:01:14;18.20;99.90
37310;DHT22;23195;47.744;7.358;2022-10-31T11:03:44;18.40;99.90
37310;DHT22;23195;47.744;7.358;2022-10-31T11:06:18;18.40;99.90
37310;DHT22;23195;47.744;7.358;2022-10-31T11:08:54;18.30;99.90
37310;DHT22;23195;47.744;7.358;2022-10-31T11:11:26;18.40;99.90
37310;DHT22;23195;47.744;7.358;2022-10-31T11:14:02;18.40;99.90
37310;DHT22;23195;47.744;7.358;2022-10-31T11:16:44;18.20;99.90
37310;DHT22;23195;47.744;7.358;2022-10-31T11:19:25;18.40;99.90
37310;DHT22;23195;47.744;7.358;2022-10-31T11:21:52;18.60;99.90
37310;DHT22;23195;47.744;7.358;2022-10-31T11:24:23;18.60;99.90
37310;DHT22;23195;47.744;7.358;2022-10-31T11:26:51;18.40;99.90
37310;DHT22;23195;47.744;7.358;2022-10-31T11:29:28;18.30;99.90
37310;DHT22;23195;47.744;7.358;2022-10-31T11:31:55;18.30;99.90
37310;DHT22;23195;47.744;7.358;2022-10-31T11:36:52;18.40;99.90
37310;DHT22;23195;47.744;7.358;2022-10-31T11:39:23;18.20;99.90
37310;DHT22;23195;47.744;7.358;2022-10-31T11:41:52;18.20;99.90
37310;DHT22;23195;47.744;7.358;2022-10-31T11:44:25;18.30;99.90
37310;DHT22;23195;47.744;7.358;2022-10-31T11:46:59;18.40;99.90
37310;DHT22;23195;47.744;7.358;2022-10-31T11:49:44;18.60;99.90
37310;DHT22;23195;47.744;7.358;2022-10-31T11:52:20;18.70;99.90
37310;DHT22;23195;47.744;7.358;2022-10-31T11:55:16;18.70;99.90
37310;DHT22;23195;47.744;7.358;2022-10-31T11:57:49;18.80;99.90
37310;DHT22;23195;47.744;7.358;2022-10-31T12:00:33;18.40;99.90
37310;DHT22;23195;47.744;7.358;2022-10-31T12:08:28;18.80;99.90
37310;DHT22;23195;47.744;7.358;2022-10-31T12:16:48;19.20;99.90
37310;DHT22;23195;47.744;7.358;2022-10-31T12:19:42;19.40;99.90
37310;DHT22;23195;47.744;7.358;2022-10-31T12:25:45;19.20;99.90
37310;DHT22;23195;47.744;7.358;2022-10-31T12:47:25;20.40;99.90
37310;DHT22;23195;47.744;7.358;2022-10-31T12:58:07;20.70;99.90
37310;DHT22;23195;47.744;7.358;2022-10-31T13:00:37;20.70;99.90
37310;DHT22;23195;47.744;7.358;2022-10-31T13:03:23;20.50;99.90
37310;DHT22;23195;47.744;7.358;2022-10-31T13:05:55;20.50;99.90
37310;DHT22;23195;47.744;7.358;2022-10-31T13:08:44;20.40;99.90
37310;DHT22;23195;47.744;7.358;2022-10-31T13:11:19;20.30;99.90
37310;DHT22;23195;47.744;7.358;2022-10-31T13:16:41;20.30;99.90
37310;DHT22;23195;47.744;7.358;2022-10-31T13:19:20;20.30;99.90
37310;DHT22;23195;47.744;7.358;2022-10-31T13:22:04;20.20;99.90
37310;DHT22;23195;47.744;7.358;2022-10-31T13:24:35;20.10;99.90
37310;DHT22;23195;47.744;7.358;2022-10-31T13:27:09;20.20;99.90
37310;DHT22;23195;47.744;7.358;2022-10-31T13:29:46;20.30;99.90
37310;DHT22;23195;47.744;7.358;2022-10-31T13:32:13;20.40;99.90
37310;DHT22;23195;47.744;7.358;2022-10-31T13:34:46;20.30;99.90
37310;DHT22;23195;47.744;7.358;2022-10-31T13:37:36;20.50;99.90
37310;DHT22;23195;47.744;7.358;2022-10-31T13:43:08;20.60;99.90
37310;DHT22;23195;47.744;7.358;2022-10-31T13:45:36;20.70;99.90
37310;DHT22;23195;47.744;7.358;2022-10-31T13:50:43;20.50;99.90
37310;DHT22;23195;47.744;7.358;2022-10-31T13:53:13;20.50;99.90
37310;DHT22;23195;47.744;7.358;2022-10-31T13:55:49;20.50;99.90
37310;DHT22;23195;47.744;7.358;2022-10-31T13:58:27;20.40;99.90
37310;DHT22;23195;47.744;7.358;2022-10-31T14:01:16;20.30;99.90
37310;DHT22;23195;47.744;7.358;2022-10-31T14:03:47;20.10;99.90
37310;DHT22;23195;47.744;7.358;2022-10-31T14:06:14;20.00;99.90
37310;DHT22;23195;47.744;7.358;2022-10-31T14:08:49;20.00;99.90
37310;DHT22;23195;47.744;7.358;2022-10-31T14:11:24;20.50;99.90
37310;DHT22;23195;47.744;7.358;2022-10-31T14:13:52;19.80;99.90
37310;DHT22;23195;47.744;7.358;2022-10-31T14:16:23;19.70;99.90
37310;DHT22;23195;47.744;7.358;2022-10-31T14:19:06;19.60;99.90
37310;DHT22;23195;47.744;7.358;2022-10-31T14:21:44;19.50;99.90
37310;DHT22;23195;47.744;7.358;2022-10-31T14:26:59;19.60;99.90
37310;DHT22;23195;47.744;7.358;2022-10-31T14:29:34;19.60;99.90
37310;DHT22;23195;47.744;7.358;2022-10-31T14:32:05;19.60;99.90
37310;DHT22;23195;47.744;7.358;2022-10-31T14:34:41;19.60;99.90
37310;DHT22;23195;47.744;7.358;2022-10-31T14:40:59;19.50;99.90
37310;DHT22;23195;47.744;7.358;2022-10-31T14:51:40;19.30;99.90
37310;DHT22;23195;47.744;7.358;2022-10-31T14:54:33;19.20;99.90
37310;DHT22;23195;47.744;7.358;2022-10-31T14:57:04;19.10;99.90
37310;DHT22;23195;47.744;7.358;2022-10-31T14:59:37;19.00;99.90
37310;DHT22;23195;47.744;7.358;2022-10-31T15:04:45;18.90;99.90
37310;DHT22;23195;47.744;7.358;2022-10-31T15:07:27;18.80;99.90
37310;DHT22;23195;47.744;7.358;2022-10-31T15:10:05;18.80;99.90
37310;DHT22;23195;47.744;7.358;2022-10-31T15:12:34;18.80;99.90
37310;DHT22;23195;47.744;7.358;2022-10-31T15:17:45;18.70;99.90
37310;DHT22;23195;47.744;7.358;2022-10-31T15:20:19;18.60;99.90
37310;DHT22;23195;47.744;7.358;2022-10-31T15:22:46;18.60;99.90
37310;DHT22;23195;47.744;7.358;2022-10-31T15:25:21;18.50;99.90
37310;DHT22;23195;47.744;7.358;2022-10-31T15:27:49;18.50;99.90
37310;DHT22;23195;47.744;7.358;2022-10-31T15:30:22;18.50;99.90
37310;DHT22;23195;47.744;7.358;2022-10-31T15:32:49;18.50;99.90
37310;DHT22;23195;47.744;7.358;2022-10-31T15:35:26;18.40;99.90
37310;DHT22;23195;47.744;7.358;2022-10-31T15:37:53;18.20;99.90
37310;DHT22;23195;47.744;7.358;2022-10-31T15:40:23;18.10;99.90
37310;DHT22;23195;47.744;7.358;2022-10-31T15:42:59;18.00;99.90
37310;DHT22;23195;47.744;7.358;2022-10-31T15:45:27;17.70;99.90
37310;DHT22;23195;47.744;7.358;2022-10-31T15:47:59;17.50;99.90
37310;DHT22;23195;47.744;7.358;2022-10-31T15:50:38;17.50;99.90
37310;DHT22;23195;47.744;7.358;2022-10-31T15:53:13;17.50;99.90
37310;DHT22;23195;47.744;7.358;2022-10-31T15:55:48;17.40;99.90
37310;DHT22;23195;47.744;7.358;2022-10-31T15:58:19;17.30;99.90
37310;DHT22;23195;47.744;7.358;2022-10-31T16:00:45;17.00;99.90
37310;DHT22;23195;47.744;7.358;2022-10-31T16:03:25;16.90;99.90
37310;DHT22;23195;47.744;7.358;2022-10-31T16:05:54;16.80;99.90
37310;DHT22;23195;47.744;7.358;2022-10-31T16:10:59;16.50;99.90
37310;DHT22;23195;47.744;7.358;2022-10-31T16:13:35;16.40;99.90
37310;DHT22;23195;47.744;7.358;2022-10-31T16:16:04;16.30;99.90
37310;DHT22;23195;47.744;7.358;2022-10-31T16:18:37;16.20;99.90
37310;DHT22;23195;47.744;7.358;2022-10-31T16:21:04;16.10;99.90
37310;DHT22;23195;47.744;7.358;2022-10-31T16:23:30;16.10;99.90
37310;DHT22;23195;47.744;7.358;2022-10-31T16:25:56;16.00;99.90
37310;DHT22;23195;47.744;7.358;2022-10-31T16:28:24;15.90;99.90
37310;DHT22;23195;47.744;7.358;2022-10-31T16:30:52;15.80;99.90
37310;DHT22;23195;47.744;7.358;2022-10-31T16:36:35;15.80;99.90
37310;DHT22;23195;47.744;7.358;2022-10-31T16:39:04;15.70;99.90
37310;DHT22;23195;47.744;7.358;2022-10-31T16:44:54;16.10;99.90
37310;DHT22;23195;47.744;7.358;2022-10-31T16:47:20;15.50;99.90
37310;DHT22;23195;47.744;7.358;2022-10-31T16:49:49;15.50;99.90
37310;DHT22;23195;47.744;7.358;2022-10-31T16:52:18;15.50;99.90
37310;DHT22;23195;47.744;7.358;2022-10-31T16:54:43;15.50;99.90
37310;DHT22;23195;47.744;7.358;2022-10-31T16:57:15;15.50;99.90
37310;DHT22;23195;47.744;7.358;2022-10-31T16:59:43;15.40;99.90
37310;DHT22;23195;47.744;7.358;2022-10-31T17:02:16;15.30;99.90
37310;DHT22;23195;47.744;7.358;2022-10-31T17:04:42;15.30;99.90
37310;DHT22;23195;47.744;7.358;2022-10-31T17:07:08;15.20;99.90
37310;DHT22;23195;47.744;7.358;2022-10-31T17:09:34;15.20;99.90
37310;DHT22;23195;47.744;7.358;2022-10-31T17:12:00;15.10;99.90
37310;DHT22;23195;47.744;7.358;2022-10-31T17:14:26;14.90;99.90
37310;DHT22;23195;47.744;7.358;2022-10-31T17:16:52;15.10;99.90
37310;DHT22;23195;47.744;7.358;2022-10-31T17:19:17;15.00;99.90
37310;DHT22;23195;47.744;7.358;2022-10-31T17:21:46;15.00;99.90
37310;DHT22;23195;47.744;7.358;2022-10-31T17:24:13;14.90;99.90
37310;DHT22;23195;47.744;7.358;2022-10-31T17:26:39;14.90;99.90
37310;DHT22;23195;47.744;7.358;2022-10-31T17:29:05;14.80;99.90
37310;DHT22;23195;47.744;7.358;2022-10-31T17:31:33;14.80;99.90
37310;DHT22;23195;47.744;7.358;2022-10-31T17:34:01;14.80;99.90
37310;DHT22;23195;47.744;7.358;2022-10-31T17:36:30;14.80;99.90
37310;DHT22;23195;47.744;7.358;2022-10-31T17:38:56;14.70;99.90
37310;DHT22;23195;47.744;7.358;2022-10-31T17:41:21;14.70;99.90
37310;DHT22;23195;47.744;7.358;2022-10-31T17:43:47;14.70;99.90
37310;DHT22;23195;47.744;7.358;2022-10-31T17:46:13;14.60;99.90
37310;DHT22;23195;47.744;7.358;2022-10-31T17:48:39;14.60;99.90
37310;DHT22;23195;47.744;7.358;2022-10-31T17:51:05;14.60;99.90
37310;DHT22;23195;47.744;7.358;2022-10-31T17:53:33;14.50;99.90
37310;DHT22;23195;47.744;7.358;2022-10-31T17:56:04;14.40;99.90
37310;DHT22;23195;47.744;7.358;2022-10-31T17:58:30;14.30;99.90
37310;DHT22;23195;47.744;7.358;2022-10-31T18:00:57;14.30;99.90
37310;DHT22;23195;47.744;7.358;2022-10-31T18:03:24;14.20;99.90